createdAt,value
2023-01-19T00:03:51.802Z,21.5
2023-01-19T00:08:34.095Z,22.2
2023-01-19T00:13:16.301Z,21.7
2023-01-19T00:17:58.678Z,20.9
2023-01-19T00:22:40.844Z,22.1
2023-01-19T00:27:23.214Z,20.2
2023-01-19T00:32:05.580Z,23.5
2023-01-19T00:36:47.590Z,21.7
2023-01-19T00:41:29.910Z,21.2
2023-01-19T00:46:12.371Z,24.3
2023-01-19T00:50:53.455Z,21.1
2023-01-19T00:55:35.944Z,24.7
2023-01-19T01:00:18.259Z,22.7
2023-01-19T01:05:00.491Z,22
2023-01-19T01:09:42.840Z,23.3
2023-01-19T01:14:25.008Z,26
2023-01-19T01:19:07.400Z,26
2023-01-19T01:23:49.721Z,24.8
2023-01-19T01:28:31.924Z,26.4
2023-01-19T01:33:14.224Z,33.9
2023-01-19T01:37:56.458Z,31.9
2023-01-19T01:42:38.677Z,30.2
2023-01-19T01:47:21.066Z,33.3
2023-01-19T01:52:02.465Z,33.59
2023-01-19T01:56:44.500Z,32.59
2023-01-19T02:01:26.919Z,34.4
2023-01-19T02:06:09.216Z,34.09
2023-01-19T02:10:51.546Z,35
2023-01-19T02:15:33.805Z,35.2
2023-01-19T02:20:16.125Z,37
2023-01-19T02:24:58.397Z,37.4
2023-01-19T02:29:40.719Z,37.9
2023-01-19T02:34:22.975Z,38.59
2023-01-19T02:39:05.191Z,31.7
2023-01-19T02:43:47.474Z,35.3
2023-01-19T02:48:29.793Z,35.3
2023-01-19T02:53:11.146Z,35.7
2023-01-19T02:57:53.273Z,38.09
2023-01-19T03:02:35.734Z,35.9
2023-01-19T03:07:18.053Z,36.5
2023-01-19T03:12:00.243Z,33.2
2023-01-19T03:16:42.576Z,34.8
2023-01-19T03:21:24.787Z,37.7
2023-01-19T03:26:07.176Z,40.5
2023-01-19T03:30:49.329Z,39.09
2023-01-19T03:35:31.668Z,34
2023-01-19T03:40:13.939Z,37.5
2023-01-19T03:44:56.130Z,35.59
2023-01-19T03:49:38.449Z,37.8
2023-01-19T03:54:19.861Z,37.7
2023-01-19T03:59:02.187Z,40
2023-01-19T04:03:44.266Z,38.5
2023-01-19T04:08:26.705Z,41.3
2023-01-19T04:13:08.835Z,40.9
2023-01-19T04:17:51.223Z,39.4
2023-01-19T04:22:33.574Z,39.9
2023-01-19T04:27:14.877Z,48.9
2023-01-19T04:31:56.123Z,44.3
2023-01-19T04:36:38.454Z,45.9
2023-01-19T04:41:20.798Z,48.5
2023-01-19T04:46:02.975Z,47.9
2023-01-19T04:55:27.374Z,49.3
2023-01-19T05:00:09.877Z,52.9
2023-01-19T05:04:52.201Z,51.2
2023-01-19T07:48:33.660Z,29.2
2023-01-19T07:53:15.919Z,33.9
2023-01-19T07:57:58.216Z,31
2023-01-19T08:02:40.438Z,34.59
2023-01-19T08:07:22.638Z,33.9
2023-01-19T08:12:04.898Z,31.3
2023-01-19T08:16:47.224Z,28.4
2023-01-19T08:21:29.448Z,28
2023-01-19T08:26:11.784Z,27.6
2023-01-19T08:30:53.998Z,27.6
2023-01-19T08:35:36.317Z,24.3
2023-01-19T08:40:18.644Z,28.3
2023-01-19T08:45:00.915Z,28.4
2023-01-19T08:49:43.211Z,29.7
2023-01-19T08:54:25.592Z,24.8
2023-01-19T08:59:07.784Z,26
2023-01-19T09:03:50.077Z,27.6
2023-01-19T09:08:32.292Z,24.3
2023-01-19T09:13:14.612Z,28.8
2023-01-19T09:17:56.883Z,18.5
2023-01-19T09:22:39.165Z,19.4
2023-01-19T09:27:21.489Z,15.3
2023-01-19T09:32:03.732Z,10.8
2023-01-19T09:36:46.031Z,12.2
2023-01-19T09:41:28.411Z,10.5
2023-01-19T09:46:10.586Z,11.8
2023-01-19T09:50:52.811Z,12
2023-01-19T09:55:35.146Z,13.2
2023-01-19T10:00:17.462Z,11
2023-01-19T10:04:59.694Z,10.5
2023-01-19T10:09:42.017Z,10.7
2023-01-19T10:14:24.227Z,11.5
2023-01-19T10:19:06.593Z,9.2
2023-01-19T10:28:31.120Z,9.3
2023-01-19T10:33:13.425Z,9.3
2023-01-19T10:37:55.771Z,6.3
2023-01-19T10:42:38.036Z,7
2023-01-19T10:47:20.202Z,6.8
2023-01-19T10:52:02.582Z,9.1
2023-01-19T10:56:44.751Z,7.3
2023-01-19T11:01:27.079Z,6.9
2023-01-19T11:06:09.396Z,7.7
2023-01-19T11:10:51.621Z,7.8
2023-01-19T11:15:33.958Z,6.7
2023-01-19T11:20:16.178Z,6.1
2023-01-19T11:24:58.525Z,7.6
2023-01-19T11:29:40.712Z,6.9
2023-01-19T11:34:23.061Z,6.3
2023-01-19T11:39:05.404Z,8.8
2023-01-19T11:43:47.585Z,6.8
2023-01-19T11:48:29.912Z,6.7
2023-01-19T11:53:12.137Z,5.2
2023-01-19T11:57:54.582Z,4.5
2023-01-19T12:02:36.795Z,5.2
2023-01-19T12:07:19.005Z,6.4
2023-01-19T12:12:01.386Z,4
2023-01-19T12:16:43.566Z,5.2
2023-01-19T12:21:25.886Z,4.4
2023-01-19T12:26:08.197Z,4
2023-01-19T12:30:50.439Z,3.5
2023-01-19T12:35:32.742Z,4.4
2023-01-19T12:40:14.968Z,3.2
2023-01-19T12:44:57.305Z,3.4
2023-01-19T12:49:39.517Z,4
2023-01-19T12:54:21.837Z,4.8
2023-01-19T12:59:04.167Z,3.9
2023-01-19T13:03:46.395Z,3.9
2023-01-19T13:08:28.713Z,5.1
2023-01-19T13:13:10.946Z,4.6
2023-01-19T13:17:53.268Z,3.3
2023-01-19T13:22:35.577Z,3
2023-01-19T13:27:17.800Z,2.8
2023-01-19T13:32:00.145Z,4.1
2023-01-19T13:36:42.350Z,3.5
2023-01-19T13:41:24.677Z,2.6
2023-01-19T13:46:06.997Z,2.4
2023-01-19T13:50:49.236Z,2.8
2023-01-19T13:55:31.553Z,2.9
2023-01-19T14:00:13.774Z,2.2
2023-01-19T14:04:56.101Z,2.7
2023-01-19T14:09:38.319Z,2.09
2023-01-19T14:14:20.647Z,2
2023-01-19T14:19:02.966Z,2.09
2023-01-19T14:23:45.195Z,2.3
2023-01-19T14:28:27.516Z,2.2
2023-01-19T14:33:09.745Z,2.4
2023-01-19T14:37:52.080Z,2.3
2023-01-19T14:42:34.294Z,2.3
2023-01-19T14:47:16.620Z,3.3
2023-01-19T14:51:58.990Z,3.4
2023-01-19T14:56:41.159Z,3.5
2023-01-19T15:01:23.483Z,4.1
2023-01-19T15:06:05.707Z,3.5
2023-01-19T15:10:48.034Z,4
2023-01-19T15:15:30.369Z,4.6
2023-01-19T15:20:12.583Z,4.3
2023-01-19T15:24:54.905Z,4.4
2023-01-19T15:29:37.131Z,4.5
2023-01-19T15:34:19.457Z,5.4
2023-01-19T15:39:01.684Z,5.6
2023-01-19T15:43:44.003Z,5.2
2023-01-19T15:48:26.329Z,4.9
2023-01-19T15:53:08.560Z,4.69
2023-01-19T15:57:50.879Z,5.3
2023-01-19T16:02:33.120Z,5.7
2023-01-19T16:07:15.425Z,5.3
2023-01-19T16:11:57.781Z,6.6
2023-01-19T16:16:39.972Z,6.5
2023-01-19T16:30:46.847Z,9
2023-01-19T16:35:29.168Z,8.3
2023-01-19T16:40:11.395Z,9.39
2023-01-19T16:44:53.719Z,8.2
2023-01-19T16:49:35.942Z,8.6
2023-01-19T16:54:18.319Z,7.5
2023-01-19T16:59:00.595Z,8.1
2023-01-19T17:03:42.820Z,7.5
2023-01-19T17:08:25.141Z,7.7
2023-01-19T17:13:07.369Z,8
2023-01-19T17:22:32.014Z,8
2023-01-19T17:27:14.244Z,7.4
2023-01-19T17:31:56.563Z,9.2
2023-01-19T17:36:38.807Z,11.6
2023-01-19T17:41:21.112Z,21.9
2023-01-19T17:50:45.665Z,10.3
2023-01-19T18:04:52.591Z,12.4
2023-01-19T18:09:34.854Z,11.2
2023-01-19T18:14:17.090Z,11.9
2023-01-19T18:18:59.422Z,13.4
2023-01-19T18:23:40.729Z,12.9
2023-01-19T18:28:22.964Z,14.1
2023-01-19T18:33:05.285Z,15.7
2023-01-19T18:37:47.527Z,15.4
2023-01-19T18:47:12.155Z,11.8
2023-01-19T18:51:54.378Z,9.7
2023-01-19T18:56:36.763Z,10.4
2023-01-19T19:01:18.932Z,8.8
2023-01-19T19:06:01.255Z,9.2
2023-01-19T19:10:43.582Z,8.5
2023-01-19T19:15:25.801Z,9.5
2023-01-19T19:20:08.131Z,10.1
2023-01-19T19:24:50.397Z,9.1
2023-01-19T19:29:32.717Z,10.7
2023-01-19T19:34:14.911Z,10.3
2023-01-19T19:38:57.237Z,10.2
2023-01-19T19:43:39.552Z,9.8
2023-01-19T19:48:21.807Z,9.5
2023-01-19T19:53:04.098Z,9.5
2023-01-19T19:57:45.425Z,10.5
2023-01-19T20:02:27.651Z,10.5
2023-01-19T20:07:08.974Z,10.6
2023-01-19T20:11:50.413Z,10.5
2023-01-19T20:16:32.841Z,10.7
2023-01-19T20:21:14.836Z,10.6
2023-01-19T20:25:57.168Z,10.3
2023-01-19T20:30:39.416Z,10.5
2023-01-19T20:35:21.728Z,8.3
2023-01-19T20:40:04.039Z,11.1
2023-01-19T20:44:46.266Z,9
2023-01-19T20:49:28.589Z,8.39
2023-01-19T20:54:10.813Z,8.5
2023-01-19T20:58:53.185Z,9.1
2023-01-19T21:03:35.467Z,8
2023-01-19T21:08:17.688Z,7.3
2023-01-19T21:12:59.020Z,8.1
2023-01-19T21:17:41.232Z,7.6
2023-01-19T21:22:23.563Z,7.6
2023-01-19T21:27:05.888Z,8.3
2023-01-19T21:31:48.128Z,9.1
2023-01-19T21:36:30.431Z,7.9
2023-01-19T21:45:54.993Z,8.39
2023-01-19T21:50:37.310Z,7.6
2023-01-19T21:55:19.531Z,7.5
2023-01-19T22:00:01.874Z,9.3
2023-01-19T22:04:44.084Z,8.2
2023-01-19T22:09:26.408Z,8.3
2023-01-19T22:14:07.738Z,9.3
2023-01-19T22:23:32.248Z,8
2023-01-19T22:28:14.574Z,8.5
2023-01-19T22:32:56.801Z,8.1
2023-01-19T22:37:39.153Z,10
2023-01-19T22:42:21.455Z,10.2
2023-01-19T22:47:03.721Z,9.7
2023-01-19T22:51:46.071Z,10.2
2023-01-19T22:56:28.257Z,10.1
2023-01-19T23:01:10.556Z,11.2
2023-01-19T23:05:52.864Z,9.89
2023-01-19T23:10:35.099Z,10.7
2023-01-19T23:15:16.428Z,11.7
2023-01-19T23:19:58.648Z,10.5
2023-01-19T23:24:40.976Z,10.5
2023-01-19T23:29:23.305Z,10.1
2023-01-19T23:34:05.524Z,9.5
2023-01-19T23:38:47.849Z,11.6
2023-01-19T23:43:30.085Z,11.5
2023-01-19T23:48:12.447Z,10.5
2023-01-19T23:52:54.721Z,10.7
2023-01-19T23:57:36.955Z,11.1
